Time;durP1;ratioP1;P1;durP2;ratioP2;P2;SDS_P1;SDS_P2;PMS_P1;PMS_P2;Temp;Humidity;BMP_temperature;BMP_pressure;BME280_temperature;BME280_humidity;BME280_pressure;Samples;Min_cycle;Max_cycle;Signal;HPM_P1;HPM_P2
2020/12/02 00:01:18;;;;;;;16.95;5.88;;;;;;;8.44;100.00;102882.19;5071736;28;20078;-67
2020/12/02 00:04:12;;;;;;;18.42;6.10;;;;;;;8.44;100.00;102875.88;5071303;28;20028;-67
2020/12/02 00:06:40;;;;;;;20.80;5.60;;;;;;;8.41;100.00;102868.09;5069045;28;20414;-67
2020/12/02 00:09:16;;;;;;;19.73;6.70;;;;;;;8.42;100.00;102861.59;5071199;28;20387;-67
2020/12/02 00:11:42;;;;;;;19.35;6.60;;;;;;;8.41;100.00;102865.34;5071258;28;20024;-67
2020/12/02 00:14:13;;;;;;;15.80;6.07;;;;;;;8.41;100.00;102854.47;5071087;28;20024;-67
2020/12/02 00:16:39;;;;;;;18.40;6.07;;;;;;;8.40;100.00;102850.03;5071150;28;20493;-67
2020/12/02 00:19:05;;;;;;;20.33;6.63;;;;;;;8.40;100.00;102847.31;5071047;28;20043;-67
2020/12/02 00:21:32;;;;;;;18.27;5.82;;;;;;;8.40;100.00;102852.78;5071022;28;20055;-67
2020/12/02 00:23:59;;;;;;;20.95;6.57;;;;;;;8.39;100.00;102846.47;5070867;28;20101;-67
2020/12/02 00:26:25;;;;;;;24.52;7.93;;;;;;;8.39;100.00;102845.63;5070837;28;20470;-67
2020/12/02 00:28:51;;;;;;;23.05;6.97;;;;;;;8.38;100.00;102841.22;5071309;28;20029;-67
2020/12/02 00:31:18;;;;;;;19.23;6.50;;;;;;;8.38;100.00;102843.94;5071046;28;20036;-67
2020/12/02 00:33:44;;;;;;;16.65;5.75;;;;;;;8.36;100.00;102846.00;5071018;28;20044;-67
2020/12/02 00:36:10;;;;;;;18.73;6.28;;;;;;;8.36;100.00;102846.00;5070965;28;20114;-68
2020/12/02 00:38:36;;;;;;;17.40;7.25;;;;;;;8.36;100.00;102846.00;5070698;28;20117;-67
2020/12/02 00:41:01;;;;;;;18.73;6.93;;;;;;;8.35;100.00;102838.84;5070886;28;20072;-67
2020/12/02 00:43:29;;;;;;;22.23;6.88;;;;;;;8.35;100.00;102838.84;5071140;28;20037;-67
2020/12/02 00:46:04;;;;;;;20.42;6.47;;;;;;;8.33;100.00;102840.84;5070969;28;20043;-67
2020/12/02 00:48:32;;;;;;;16.80;6.28;;;;;;;8.31;100.00;102835.56;5069602;28;20442;-68
2020/12/02 00:50:58;;;;;;;15.35;5.90;;;;;;;8.28;100.00;102832.38;5070871;28;20041;-68
2020/12/02 00:53:33;;;;;;;24.77;6.40;;;;;;;8.24;100.00;102836.50;5070758;28;20037;-67
2020/12/02 00:55:59;;;;;;;19.52;5.75;;;;;;;8.21;100.00;102832.25;5070721;28;20040;-67
2020/12/02 00:58:34;;;;;;;21.63;6.78;;;;;;;8.15;100.00;102820.19;5070634;28;20040;-68
2020/12/02 01:01:03;;;;;;;18.40;5.95;;;;;;;8.14;100.00;102821.19;5070824;28;20368;-67
2020/12/02 01:03:30;;;;;;;17.40;6.72;;;;;;;8.11;100.00;102816.13;5070687;28;20028;-67
2020/12/02 01:05:58;;;;;;;21.13;7.05;;;;;;;8.08;100.00;102805.59;5070631;28;20039;-67
2020/12/02 01:08:29;;;;;;;19.38;6.00;;;;;;;8.07;100.00;102798.47;5070547;28;20397;-67
2020/12/02 01:11:07;;;;;;;16.65;6.22;;;;;;;8.06;100.00;102799.47;5070977;28;20039;-67
2020/12/02 01:13:34;;;;;;;18.50;5.82;;;;;;;8.04;100.00;102798.81;5070976;28;20028;-68
2020/12/02 01:16:06;;;;;;;15.85;6.55;;;;;;;8.05;100.00;102795.06;5069722;28;20040;-67
2020/12/02 01:18:32;;;;;;;26.42;6.60;;;;;;;8.02;100.00;102791.84;5074294;28;20028;-67
2020/12/02 01:21:14;;;;;;;27.42;6.93;;;;;;;8.01;100.00;102788.28;5074205;28;20029;-67
2020/12/02 01:23:46;;;;;;;22.25;6.13;;;;;;;8.00;100.00;102786.59;5074104;28;20066;-67
2020/12/02 01:26:12;;;;;;;22.98;6.70;;;;;;;8.00;100.00;102778.44;5074688;28;20119;-67
2020/12/02 01:28:38;;;;;;;26.98;6.50;;;;;;;8.01;100.00;102774.69;5074023;28;20035;-67
2020/12/02 01:31:04;;;;;;;24.42;6.50;;;;;;;8.01;100.00;102769.25;5074126;28;20394;-67
2020/12/02 01:33:31;;;;;;;13.00;5.97;;;;;;;8.02;100.00;102767.38;5074041;28;20032;-67
2020/12/02 01:35:57;;;;;;;20.98;6.20;;;;;;;8.02;100.00;102765.50;5074126;28;20032;-68
2020/12/02 01:38:30;;;;;;;20.30;5.13;;;;;;;8.04;100.00;102755.28;5072474;28;20136;-68
2020/12/02 01:40:56;;;;;;;19.73;5.88;;;;;;;8.05;100.00;102754.25;5074115;28;20067;-67
2020/12/02 01:43:22;;;;;;;13.65;5.68;;;;;;;8.05;100.00;102751.53;5073936;28;20109;-67
2020/12/02 01:45:52;;;;;;;16.25;5.65;;;;;;;8.08;100.00;102751.16;5073971;28;20413;-67
2020/12/02 01:48:23;;;;;;;17.02;5.40;;;;;;;8.11;100.00;102750.78;5073817;28;20429;-67
2020/12/02 01:51:04;;;;;;;19.45;5.53;;;;;;;8.12;100.00;102741.59;5073913;28;20040;-67
2020/12/02 01:53:45;;;;;;;21.10;6.30;;;;;;;8.15;100.00;102738.50;5073813;28;20123;-67
2020/12/02 01:56:49;;;;;;;18.05;6.35;;;;;;;8.19;100.00;102735.47;5073851;28;20032;-67
2020/12/02 01:59:17;;;;;;;20.80;6.72;;;;;;;8.21;100.00;102727.97;5011736;28;20056;-67
2020/12/02 02:01:46;;;;;;;21.60;5.65;;;;;;;8.21;100.00;102727.97;5022748;28;20482;-67
2020/12/02 02:04:18;;;;;;;19.90;5.90;;;;;;;8.23;100.00;102734.06;5073708;28;20060;-67
2020/12/02 02:07:04;;;;;;;21.08;5.32;;;;;;;8.24;100.00;102733.88;5073533;28;20033;-67
2020/12/02 02:09:30;;;;;;;22.23;5.43;;;;;;;8.24;100.00;102727.59;5073571;28;20025;-67
2020/12/02 02:12:37;;;;;;;19.05;5.75;;;;;;;8.27;100.00;102724.50;5073362;28;20040;-67
2020/12/02 02:15:16;;;;;;;14.57;5.05;;;;;;;8.28;100.00;102726.19;5073093;28;20048;-67
2020/12/02 02:17:42;;;;;;;22.10;5.45;;;;;;;8.29;100.00;102725.16;5073314;28;20044;-67
2020/12/02 02:20:10;;;;;;;21.23;5.47;;;;;;;8.30;100.00;102722.25;5073254;28;20037;-67
2020/12/02 02:22:54;;;;;;;16.75;5.30;;;;;;;8.32;100.00;102717.47;5073096;28;20098;-67
2020/12/02 02:25:20;;;;;;;16.38;5.72;;;;;;;8.33;100.00;102726.50;5073283;28;20371;-67
2020/12/02 02:27:46;;;;;;;22.83;6.18;;;;;;;8.35;100.00;102719.06;5072438;28;20036;-67
2020/12/02 02:30:13;;;;;;;15.88;5.75;;;;;;;8.36;100.00;102718.00;5073127;28;20036;-67
2020/12/02 02:32:40;;;;;;;21.10;7.07;;;;;;;8.38;100.00;102713.22;5073099;28;20606;-67
2020/12/02 02:35:06;;;;;;;20.88;7.15;;;;;;;8.41;100.00;102704.69;5072986;28;20037;-67
2020/12/02 02:37:32;;;;;;;22.52;7.22;;;;;;;8.41;100.00;102704.69;5072799;28;20375;-67
2020/12/02 02:40:00;;;;;;;20.77;7.63;;;;;;;8.42;100.00;102703.66;5072822;28;20032;-67
2020/12/02 02:42:32;;;;;;;20.75;7.35;;;;;;;8.42;100.00;102695.50;5072961;28;20158;-67
2020/12/02 02:45:00;;;;;;;16.30;7.63;;;;;;;8.43;100.00;102702.63;5072784;28;20056;-67
2020/12/02 02:47:26;;;;;;;22.23;7.28;;;;;;;8.43;100.00;102700.75;5072611;28;20040;-67
2020/12/02 02:49:51;;;;;;;22.63;7.82;;;;;;;8.44;100.00;102701.59;5072724;28;20043;-67
2020/12/02 02:52:17;;;;;;;17.23;7.05;;;;;;;8.45;100.00;102689.69;5072504;28;20131;-67
2020/12/02 02:54:43;;;;;;;20.27;7.82;;;;;;;8.46;100.00;102688.66;5072662;28;20036;-67
2020/12/02 02:57:09;;;;;;;24.88;7.22;;;;;;;8.48;100.00;102675.69;5072420;28;20033;-67
2020/12/02 02:59:35;;;;;;;24.38;7.72;;;;;;;8.49;100.00;102671.94;5072569;28;20055;-67
2020/12/02 03:02:02;;;;;;;20.15;7.47;;;;;;;8.50;100.00;102670.91;5072457;28;20047;-67
2020/12/02 03:04:27;;;;;;;23.00;7.10;;;;;;;8.50;100.00;102670.06;5072497;28;20033;-67
2020/12/02 03:06:53;;;;;;;26.38;7.70;;;;;;;8.51;100.00;102661.72;5072332;28;20162;-67
2020/12/02 03:09:19;;;;;;;24.38;7.00;;;;;;;8.51;100.00;102656.28;5072248;28;20044;-67
2020/12/02 03:11:44;;;;;;;19.00;6.05;;;;;;;8.53;100.00;102651.50;5072273;28;20040;-67
2020/12/02 03:14:11;;;;;;;22.67;6.57;;;;;;;8.55;100.00;102659.47;5072225;28;20478;-67
2020/12/02 03:16:38;;;;;;;17.55;7.85;;;;;;;8.55;100.00;102657.59;5072096;28;20039;-67
2020/12/02 03:19:11;;;;;;;25.17;7.53;;;;;;;8.56;100.00;102648.41;5072028;28;20064;-67
2020/12/02 03:21:36;;;;;;;21.10;6.93;;;;;;;8.55;100.00;102641.25;5072210;28;20040;-67
2020/12/02 03:24:03;;;;;;;23.50;7.07;;;;;;;8.57;100.00;102647.38;5071898;28;20075;-67
2020/12/02 03:26:30;;;;;;;16.60;6.95;;;;;;;8.59;100.00;102641.72;5071966;28;20086;-67
2020/12/02 03:28:55;;;;;;;21.92;7.03;;;;;;;8.58;100.00;102638.16;5071904;28;20040;-67
2020/12/02 03:31:22;;;;;;;20.55;7.00;;;;;;;8.60;100.00;102640.69;5071945;28;20042;-67
2020/12/02 03:33:48;;;;;;;14.68;7.15;;;;;;;8.61;100.00;102632.34;5072154;28;20067;-67
2020/12/02 03:36:15;;;;;;;25.02;7.35;;;;;;;8.62;100.00;102634.03;5071841;28;20067;-67
2020/12/02 03:38:43;;;;;;;16.75;6.80;;;;;;;8.63;100.00;102630.28;5071708;28;20051;-69
2020/12/02 03:41:09;;;;;;;18.40;6.07;;;;;;;8.62;100.00;102617.69;5071437;28;20044;-69
2020/12/02 03:43:35;;;;;;;22.77;7.65;;;;;;;8.63;100.00;102619.38;5071659;28;20075;-70
2020/12/02 03:46:01;;;;;;;17.85;6.15;;;;;;;8.64;100.00;102610.16;5071600;28;20076;-67
2020/12/02 03:48:27;;;;;;;19.00;6.80;;;;;;;8.65;100.00;102617.31;5071753;28;20037;-67
2020/12/02 03:50:52;;;;;;;17.00;5.93;;;;;;;8.65;100.00;102617.31;5071748;28;20549;-67
2020/12/02 03:53:18;;;;;;;23.08;6.60;;;;;;;8.67;100.00;102619.84;5071836;28;20289;-67
2020/12/02 03:55:44;;;;;;;19.58;6.22;;;;;;;8.68;100.00;102618.84;5071742;28;20382;-67
2020/12/02 03:58:10;;;;;;;17.08;6.20;;;;;;;8.68;100.00;102619.69;5071332;28;20119;-67
2020/12/02 04:00:36;;;;;;;18.42;5.90;;;;;;;8.70;100.00;102623.06;5071335;28;20159;-67
2020/12/02 04:03:03;;;;;;;20.10;7.05;;;;;;;8.71;100.00;102611.13;5071281;28;20090;-67
2020/12/02 04:05:29;;;;;;;21.48;6.40;;;;;;;8.72;100.00;102618.28;5071484;28;20115;-67
2020/12/02 04:07:54;;;;;;;19.35;5.72;;;;;;;8.73;100.00;102619.97;5071291;28;20191;-67
2020/12/02 04:10:20;;;;;;;36.60;6.93;;;;;;;8.73;100.00;102614.50;5071274;28;20063;-67
2020/12/02 04:12:46;;;;;;;19.65;6.28;;;;;;;8.74;100.00;102608.03;5071271;28;20044;-67
2020/12/02 04:15:13;;;;;;;25.33;7.03;;;;;;;8.75;100.00;102607.00;5071155;28;20059;-69
2020/12/02 04:17:40;;;;;;;18.27;6.15;;;;;;;8.75;100.00;102607.00;5071375;28;20055;-67
2020/12/02 04:20:06;;;;;;;20.27;6.10;;;;;;;8.76;100.00;102596.94;5071374;28;20131;-67
2020/12/02 04:22:33;;;;;;;23.85;7.25;;;;;;;8.77;100.00;102598.63;5071049;28;20058;-69
2020/12/02 04:24:59;;;;;;;19.60;7.43;;;;;;;8.79;100.00;102598.44;5071240;28;20036;-67
2020/12/02 04:27:25;;;;;;;29.55;6.93;;;;;;;8.79;100.00;102603.88;5071049;28;20029;-67
2020/12/02 04:29:51;;;;;;;15.38;6.43;;;;;;;8.79;100.00;102591.13;5071121;28;20029;-67
2020/12/02 04:32:16;;;;;;;16.80;6.57;;;;;;;8.80;100.00;102586.50;5071037;28;20085;-67
2020/12/02 04:34:42;;;;;;;31.33;8.02;;;;;;;8.81;100.00;102582.75;5071082;28;20076;-67
2020/12/02 04:37:08;;;;;;;15.38;6.97;;;;;;;8.81;100.00;102582.75;5070946;28;20039;-67
2020/12/02 04:39:33;;;;;;;17.23;5.95;;;;;;;8.81;100.00;102577.28;5071086;28;20047;-67
2020/12/02 04:41:59;;;;;;;22.65;6.75;;;;;;;8.83;100.00;102580.69;5071028;28;20394;-67
2020/12/02 04:44:25;;;;;;;23.77;6.32;;;;;;;8.84;100.00;102577.75;5070976;28;20036;-67
2020/12/02 04:46:56;;;;;;;15.63;5.80;;;;;;;8.84;100.00;102566.03;5070967;28;20394;-67
2020/12/02 04:49:32;;;;;;;13.25;6.20;;;;;;;8.85;100.00;102563.13;5070960;28;20390;-67
2020/12/02 04:52:04;;;;;;;23.50;6.80;;;;;;;8.85;100.00;102548.63;5073012;28;20127;-67
2020/12/02 04:54:30;;;;;;;23.60;5.82;;;;;;;8.83;100.00;102547.97;5074917;28;20028;-68
2020/12/02 04:56:56;;;;;;;25.48;6.00;;;;;;;8.83;100.00;102547.97;5074765;28;20045;-67
2020/12/02 04:59:36;;;;;;;27.60;6.10;;;;;;;8.82;100.00;102535.41;5074859;28;20043;-67
2020/12/02 05:02:03;;;;;;;16.38;5.65;;;;;;;8.81;100.00;102539.16;5074831;28;20040;-67
2020/12/02 05:04:29;;;;;;;20.33;5.70;;;;;;;8.80;100.00;102537.47;5073644;28;20367;-67
2020/12/02 05:07:04;;;;;;;21.95;6.22;;;;;;;8.79;100.00;102535.78;5074675;28;20074;-67
2020/12/02 05:09:31;;;;;;;26.15;6.28;;;;;;;8.77;100.00;102531.38;5074623;28;20036;-68
2020/12/02 05:12:02;;;;;;;17.33;5.65;;;;;;;8.79;100.00;102535.78;5074570;28;20090;-68
2020/12/02 05:14:35;;;;;;;23.27;6.53;;;;;;;8.79;100.00;102541.22;5073219;28;20040;-68
2020/12/02 05:17:12;;;;;;;24.52;5.88;;;;;;;8.79;100.00;102531.16;5074362;28;20048;-67
2020/12/02 05:19:37;;;;;;;17.08;6.30;;;;;;;8.80;100.00;102537.47;5074468;28;20115;-67
2020/12/02 05:22:05;;;;;;;18.70;5.35;;;;;;;8.80;100.00;102529.28;5074160;28;20127;-67
2020/12/02 05:24:50;;;;;;;15.55;5.38;;;;;;;8.81;100.00;102525.53;5074440;28;20474;-67
2020/12/02 05:27:28;;;;;;;18.50;6.53;;;;;;;8.80;100.00;102521.13;5074292;28;20043;-67
2020/12/02 05:30:02;;;;;;;21.42;5.75;;;;;;;8.80;100.00;102515.66;5074415;28;20027;-67
2020/12/02 05:32:29;;;;;;;19.88;6.38;;;;;;;8.80;100.00;102507.50;5074218;28;20032;-68
2020/12/02 05:34:58;;;;;;;19.80;6.70;;;;;;;8.80;100.00;102504.78;5074313;28;20040;-67
2020/12/02 05:37:37;;;;;;;18.88;6.50;;;;;;;8.80;100.00;102488.41;5074191;28;20807;-67
2020/12/02 05:40:06;;;;;;;24.42;6.13;;;;;;;8.81;100.00;102490.09;5074045;28;20036;-67
2020/12/02 05:42:40;;;;;;;15.95;5.82;;;;;;;8.80;100.00;102488.41;5073925;28;20063;-67
2020/12/02 05:45:28;;;;;;;21.27;5.32;;;;;;;8.81;100.00;102493.69;5074499;28;20363;-68
2020/12/02 05:47:55;;;;;;;21.00;6.13;;;;;;;8.82;100.00;102491.78;5073776;28;20398;-67
2020/12/02 05:50:24;;;;;;;23.00;6.47;;;;;;;8.83;100.00;102485.31;5073933;28;20036;-68
2020/12/02 05:53:17;;;;;;;17.85;5.72;;;;;;;8.83;100.00;102477.97;5073868;28;20037;-67
2020/12/02 05:55:44;;;;;;;15.50;5.20;;;;;;;8.85;100.00;102475.06;5074101;28;20028;-67
2020/12/02 05:58:17;;;;;;;15.07;6.00;;;;;;;8.88;100.00;102474.72;5073618;28;20032;-67
2020/12/02 06:00:43;;;;;;;19.23;6.53;;;;;;;8.89;100.00;102465.50;5073816;28;20106;-67
2020/12/02 06:03:14;;;;;;;22.85;6.00;;;;;;;8.89;100.00;102458.16;5072706;28;20809;-67
2020/12/02 06:05:40;;;;;;;20.45;5.60;;;;;;;8.89;100.00;102450.00;5073553;28;20039;-67
2020/12/02 06:08:08;;;;;;;16.70;5.60;;;;;;;8.89;100.00;102451.88;5073384;28;20463;-67
2020/12/02 06:10:43;;;;;;;14.98;5.22;;;;;;;8.89;100.00;102447.25;5073615;28;20032;-67
2020/12/02 06:13:35;;;;;;;20.83;6.43;;;;;;;8.89;100.00;102440.97;5073468;28;20036;-67
2020/12/02 06:16:01;;;;;;;21.88;6.53;;;;;;;8.89;100.00;102435.53;5073435;28;20036;-67
2020/12/02 06:18:30;;;;;;;23.10;6.18;;;;;;;8.89;100.00;102432.78;5073222;28;20498;-67
2020/12/02 06:20:56;;;;;;;19.25;6.32;;;;;;;8.89;100.00;102427.34;5073413;28;20111;-67
2020/12/02 06:23:43;;;;;;;16.85;6.28;;;;;;;8.89;100.00;102421.91;5073031;28;20163;-67
2020/12/02 06:26:09;;;;;;;23.30;5.78;;;;;;;8.92;100.00;102426.94;5073729;28;20474;-67
2020/12/02 06:28:35;;;;;;;16.42;5.90;;;;;;;8.93;100.00;102423.19;5073027;28;20492;-67
2020/12/02 06:31:13;;;;;;;24.95;6.95;;;;;;;8.94;100.00;102419.44;5073068;28;20450;-67
2020/12/02 06:33:41;;;;;;;23.00;6.15;;;;;;;8.95;100.00;102407.50;5072906;28;20165;-67
2020/12/02 06:36:16;;;;;;;17.77;6.32;;;;;;;8.96;100.00;102406.44;5073049;28;20036;-67
2020/12/02 06:38:43;;;;;;;22.00;6.10;;;;;;;8.96;100.00;102401.00;5072742;28;20051;-67
2020/12/02 06:41:30;;;;;;;18.52;6.80;;;;;;;8.97;100.00;102397.22;5072808;28;20063;-67
2020/12/02 06:44:23;;;;;;;18.92;6.65;;;;;;;8.97;100.00;102391.78;5072800;28;20036;-67
2020/12/02 06:46:55;;;;;;;17.38;7.35;;;;;;;8.99;100.00;102381.53;5072335;28;20367;-68
2020/12/02 06:49:25;;;;;;;18.27;7.10;;;;;;;9.00;100.00;102380.50;5072630;28;20124;-66
2020/12/02 06:52:00;;;;;;;19.98;6.45;;;;;;;8.99;100.00;102370.63;5072633;28;20032;-67
2020/12/02 06:54:33;;;;;;;23.15;5.60;;;;;;;8.98;100.00;102364.34;5072750;28;20090;-67
2020/12/02 06:57:13;;;;;;;18.88;6.18;;;;;;;9.00;100.00;102372.31;5072526;28;20498;-67
2020/12/02 06:59:56;;;;;;;16.77;6.00;;;;;;;8.98;100.00;102367.06;5072466;28;20033;-68
2020/12/02 07:02:46;;;;;;;18.88;6.28;;;;;;;8.96;100.00;102369.13;5072867;28;20116;-67
2020/12/02 07:05:24;;;;;;;25.27;6.60;;;;;;;8.95;100.00;102372.06;5072455;28;20036;-67
2020/12/02 07:08:05;;;;;;;16.63;6.28;;;;;;;8.94;100.00;102375.81;5072354;28;20028;-67
2020/12/02 07:10:31;;;;;;;18.55;5.63;;;;;;;8.94;100.00;102371.22;5072452;28;20044;-67
2020/12/02 07:12:56;;;;;;;14.82;5.65;;;;;;;8.96;100.00;102379.19;5072219;28;20049;-67
2020/12/02 07:15:24;;;;;;;17.98;5.90;;;;;;;8.96;100.00;102374.59;5072290;28;20036;-67
2020/12/02 07:17:49;;;;;;;16.23;5.93;;;;;;;8.96;100.00;102368.28;5072104;28;20055;-67
2020/12/02 07:20:17;;;;;;;13.65;5.70;;;;;;;8.97;100.00;102364.53;5072077;28;20036;-67
2020/12/02 07:22:52;;;;;;;19.15;5.65;;;;;;;8.96;100.00;102368.28;5071861;28;20056;-67
2020/12/02 07:25:18;;;;;;;21.02;5.80;;;;;;;8.95;100.00;102367.44;5072185;28;20481;-68
2020/12/02 07:27:45;;;;;;;20.13;5.85;;;;;;;8.96;100.00;102362.84;5071966;28;20040;-67
2020/12/02 07:30:39;;;;;;;20.98;6.00;;;;;;;8.95;100.00;102355.72;5071877;28;20470;-67
2020/12/02 07:33:26;;;;;;;21.10;6.05;;;;;;;8.96;100.00;102368.28;5069685;28;20482;-67
2020/12/02 07:36:11;;;;;;;20.63;6.82;;;;;;;8.97;100.00;102354.47;5070520;28;20059;-69
2020/12/02 07:38:37;;;;;;;15.45;6.07;;;;;;;8.96;100.00;102341.03;5071688;28;20545;-67
2020/12/02 07:41:10;;;;;;;15.90;5.85;;;;;;;8.95;100.00;102331.19;5071705;28;20097;-67
2020/12/02 07:43:38;;;;;;;20.08;6.97;;;;;;;8.95;100.00;102328.47;5071700;28;20044;-67
2020/12/02 07:46:04;;;;;;;22.17;6.80;;;;;;;8.94;100.00;102332.22;5071717;28;20043;-67
2020/12/02 07:48:30;;;;;;;19.52;6.00;;;;;;;8.95;100.00;102314.84;5071550;28;20059;-67
2020/12/02 07:51:06;;;;;;;15.23;5.88;;;;;;;8.90;100.00;102309.13;5071654;28;20044;-67
2020/12/02 07:53:44;;;;;;;18.70;5.50;;;;;;;8.90;100.00;102320.03;5071697;28;20058;-67
2020/12/02 07:56:26;;;;;;;20.23;6.40;;;;;;;8.90;100.00;102322.75;5071423;28;20551;-67
2020/12/02 07:58:54;;;;;;;22.38;6.95;;;;;;;8.90;100.00;102328.22;5071358;28;20036;-67
2020/12/02 08:01:35;;;;;;;16.65;5.78;;;;;;;8.92;100.00;102328.84;5071515;28;20040;-67
2020/12/02 08:04:22;;;;;;;15.00;5.43;;;;;;;8.94;100.00;102332.22;5071417;28;20137;-67
2020/12/02 08:07:00;;;;;;;14.43;5.28;;;;;;;8.94;100.00;102332.22;5071198;28;20461;-67
2020/12/02 08:09:25;;;;;;;16.85;5.03;;;;;;;8.95;100.00;102329.31;5071384;28;20047;-67
2020/12/02 08:11:58;;;;;;;13.68;5.43;;;;;;;8.96;100.00;102319.25;5071212;28;20486;-67
2020/12/02 08:14:32;;;;;;;25.00;5.68;;;;;;;8.98;100.00;102312.56;5071365;28;20029;-67
2020/12/02 08:17:14;;;;;;;16.40;5.53;;;;;;;9.00;100.00;102315.06;5071172;28;20032;-67
2020/12/02 08:19:43;;;;;;;18.92;5.45;;;;;;;9.02;100.00;102315.72;5071218;28;20040;-67
2020/12/02 08:22:35;;;;;;;13.93;5.85;;;;;;;9.04;100.00;102332.75;5070849;28;20071;-67
2020/12/02 08:25:19;;;;;;;17.23;5.50;;;;;;;9.06;100.00;102344.28;5071297;28;20051;-67
2020/12/02 08:27:51;;;;;;;16.67;5.97;;;;;;;9.09;100.00;102371.16;5070731;28;20085;-67
2020/12/02 08:30:24;;;;;;;23.00;6.07;;;;;;;9.10;100.00;102364.66;5071216;28;20043;-67
2020/12/02 08:33:11;;;;;;;23.48;6.78;;;;;;;9.11;100.00;102355.44;5071104;28;20032;-67
2020/12/02 08:35:43;;;;;;;17.25;6.50;;;;;;;9.10;100.00;102361.94;5071185;28;20068;-67
2020/12/02 08:38:28;;;;;;;17.98;7.30;;;;;;;9.11;100.00;102366.34;5088613;28;20485;-67
2020/12/02 08:40:56;;;;;;;23.08;7.22;;;;;;;9.11;100.00;102366.34;5090646;28;20024;-67
2020/12/02 08:43:27;;;;;;;18.20;7.15;;;;;;;9.10;100.00;102375.56;5090844;28;20077;-67
2020/12/02 08:45:56;;;;;;;18.33;7.40;;;;;;;9.11;100.00;102374.53;5090865;28;20059;-67
2020/12/02 08:48:22;;;;;;;21.20;7.57;;;;;;;9.12;100.00;102367.19;5092709;28;20024;-66
2020/12/02 08:50:48;;;;;;;23.25;7.97;;;;;;;9.13;100.00;102364.28;5090088;28;20052;-67
2020/12/02 08:53:21;;;;;;;18.85;7.82;;;;;;;9.16;100.00;102357.59;5090015;28;20495;-68
2020/12/02 08:55:47;;;;;;;21.58;8.85;;;;;;;9.17;100.00;102353.81;5089541;28;20036;-68
2020/12/02 08:58:12;;;;;;;18.85;8.05;;;;;;;9.19;100.00;102346.28;5090426;28;20043;-67
2020/12/02 09:00:38;;;;;;;20.00;7.85;;;;;;;9.20;100.00;102348.84;5089279;28;20478;-69
2020/12/02 09:03:03;;;;;;;21.35;8.68;;;;;;;9.22;100.00;102344.03;5089144;28;20040;-68
2020/12/02 09:05:31;;;;;;;22.25;9.52;;;;;;;9.22;100.00;102351.38;5088726;28;20059;-66
2020/12/02 09:07:57;;;;;;;18.60;8.18;;;;;;;9.23;100.00;102348.44;5089532;28;20036;-66
2020/12/02 09:10:23;;;;;;;18.10;8.30;;;;;;;9.22;100.00;102340.47;5089522;28;20028;-64
2020/12/02 09:12:48;;;;;;;16.35;8.07;;;;;;;9.24;100.00;102328.31;5089995;28;20477;-68
2020/12/02 09:15:14;;;;;;;20.23;8.52;;;;;;;9.25;100.00;102323.69;5090052;28;20501;-64
2020/12/02 09:17:40;;;;;;;18.98;9.02;;;;;;;9.26;100.00;102326.22;5089412;28;20112;-67
2020/12/02 09:20:06;;;;;;;17.50;8.23;;;;;;;9.27;100.00;102317.00;5090131;28;20076;-66
2020/12/02 09:22:32;;;;;;;20.42;8.70;;;;;;;9.27;100.00;102317.00;5088000;28;20043;-70
2020/12/02 09:24:58;;;;;;;22.85;9.20;;;;;;;9.28;100.00;102315.97;5090152;28;20363;-64
2020/12/02 09:27:23;;;;;;;21.17;8.32;;;;;;;9.30;100.00;102316.59;5088352;28;20059;-63
2020/12/02 09:29:49;;;;;;;19.17;8.48;;;;;;;9.30;100.00;102311.16;5089550;28;20381;-66
2020/12/02 09:32:15;;;;;;;22.73;8.45;;;;;;;9.31;100.00;102310.13;5090288;28;20486;-63
2020/12/02 09:34:40;;;;;;;18.70;8.32;;;;;;;9.31;100.00;102315.56;5089726;28;20580;-63
2020/12/02 09:37:10;;;;;;;18.98;8.35;;;;;;;9.32;100.00;102314.53;5093865;28;20046;-65
2020/12/02 09:39:36;;;;;;;17.52;8.43;;;;;;;9.33;100.00;102313.47;5093726;28;20131;-66
2020/12/02 09:42:26;;;;;;;27.85;9.18;;;;;;;9.34;100.00;102306.97;5093623;28;20032;-70
2020/12/02 09:45:10;;;;;;;17.55;8.10;;;;;;;9.35;100.00;102322.31;5091621;28;20036;-66
2020/12/02 09:47:37;;;;;;;21.45;9.55;;;;;;;9.35;100.00;102319.56;5093390;28;20121;-67
2020/12/02 09:50:07;;;;;;;20.95;8.40;;;;;;;9.35;100.00;102325.03;5092390;28;20064;-67
2020/12/02 09:52:44;;;;;;;22.27;8.48;;;;;;;9.35;100.00;102319.56;5093393;28;20031;-69
2020/12/02 09:55:14;;;;;;;23.27;8.20;;;;;;;9.35;100.00;102316.84;5093378;28;20039;-69
2020/12/02 09:57:40;;;;;;;18.98;7.60;;;;;;;9.35;100.00;102308.66;5093483;28;20111;-69
2020/12/02 10:00:09;;;;;;;24.38;9.65;;;;;;;9.31;100.00;102307.38;5092743;28;20486;-68
2020/12/02 10:02:35;;;;;;;20.13;7.63;;;;;;;9.31;100.00;102307.38;5093068;28;20486;-67
2020/12/02 10:05:38;;;;;;;25.70;8.55;;;;;;;9.31;100.00;102296.47;5093432;28;20054;-67
2020/12/02 10:08:21;;;;;;;26.17;9.13;;;;;;;9.31;100.00;102285.56;5093339;28;20386;-64
2020/12/02 10:10:55;;;;;;;23.05;9.50;;;;;;;9.29;100.00;102276.75;5093005;28;20043;-64
2020/12/02 10:13:43;;;;;;;28.23;9.13;;;;;;;9.30;100.00;102275.72;5090578;28;20024;-70
2020/12/02 10:16:20;;;;;;;20.05;8.02;;;;;;;9.30;100.00;102275.72;5089880;28;20493;-66
2020/12/02 10:19:19;;;;;;;22.50;9.07;;;;;;;9.31;100.00;102273.81;5091163;28;20028;-70
2020/12/02 10:22:08;;;;;;;20.77;8.02;;;;;;;9.32;100.00;102265.44;5091369;28;20039;-65
2020/12/02 10:24:58;;;;;;;16.83;7.25;;;;;;;9.35;100.00;102278.66;5093029;28;20044;-69
2020/12/02 10:27:47;;;;;;;23.50;8.48;;;;;;;9.42;100.00;102275.16;5092260;28;20055;-68
2020/12/02 10:30:25;;;;;;;17.92;7.78;;;;;;;9.47;100.00;102267.22;5085510;28;20543;-69
2020/12/02 10:33:01;;;;;;;19.38;8.43;;;;;;;9.52;100.00;102262.00;5092108;28;20613;-67
2020/12/02 10:35:29;;;;;;;22.77;8.20;;;;;;;9.54;100.00;102268.94;5092071;28;20131;-66
2020/12/02 10:37:59;;;;;;;20.77;9.07;;;;;;;9.62;100.00;102254.31;5092521;28;20386;-68
2020/12/02 10:40:34;;;;;;;27.02;12.32;;;;;;;9.67;100.00;102257.25;5091870;28;20043;-68
2020/12/02 10:43:29;;;;;;;;;;;;;;;9.73;100.00;102259.22;5091705;28;20032;-64
2020/12/02 10:45:59;;;;;;;21.15;8.10;;;;;;;9.81;100.00;102255.44;5034600;28;19960;-69
2020/12/02 10:48:57;;;;;;;12.68;6.70;;;;;;;9.86;100.00;102261.97;5085303;28;20024;-65
2020/12/02 10:51:22;;;;;;;16.85;6.95;;;;;;;9.94;100.00;102261.81;5084871;28;20024;-66
2020/12/02 10:53:51;;;;;;;11.55;6.28;;;;;;;10.01;100.00;102247.34;5091160;28;20058;-69
2020/12/02 10:56:20;;;;;;;9.57;6.53;;;;;;;10.10;100.00;102244.25;5092041;28;20032;-64
2020/12/02 10:58:52;;;;;;;13.20;6.22;;;;;;;10.19;100.00;102232.06;5091544;28;20039;-63
2020/12/02 11:01:21;;;;;;;11.98;6.38;;;;;;;10.25;100.00;102233.19;5091832;28;20085;-67
2020/12/02 11:03:47;;;;;;;13.30;6.32;;;;;;;10.26;100.00;102223.97;5088673;28;20036;-66
2020/12/02 11:06:14;;;;;;;15.20;6.55;;;;;;;10.31;100.00;102209.69;5091730;28;20092;-67
2020/12/02 11:09:00;;;;;;;10.98;6.15;;;;;;;10.36;100.00;102210.72;5099354;28;20023;-67
2020/12/02 11:11:47;;;;;;;11.50;5.57;;;;;;;10.40;100.00;102192.88;5096382;28;20038;-67
2020/12/02 11:14:31;;;;;;;10.50;6.05;;;;;;;10.42;100.00;102203.63;5092410;28;20066;-66
2020/12/02 11:17:07;;;;;;;14.27;5.43;;;;;;;10.44;100.00;102190.59;5091984;28;20410;-66
2020/12/02 11:19:42;;;;;;;10.00;4.85;;;;;;;10.45;100.00;102193.09;5091927;28;20547;-67
2020/12/02 11:22:35;;;;;;;12.45;5.72;;;;;;;10.47;100.00;102174.63;5092169;28;20165;-67
2020/12/02 11:25:22;;;;;;;9.23;4.88;;;;;;;10.52;100.00;102179.44;5092216;28;20043;-65
2020/12/02 11:27:48;;;;;;;10.63;4.65;;;;;;;10.51;100.00;102178.59;5091928;28;20122;-66
2020/12/02 11:30:37;;;;;;;12.23;4.57;;;;;;;10.53;100.00;102175.66;5092147;28;20130;-69
2020/12/02 11:33:22;;;;;;;12.13;4.65;;;;;;;10.54;100.00;102169.97;5091963;28;20036;-70
2020/12/02 11:36:09;;;;;;;9.97;4.93;;;;;;;10.52;100.00;102163.88;5091501;28;20032;-70
2020/12/02 11:39:05;;;;;;;11.18;4.28;;;;;;;10.48;100.00;102151.72;5090602;28;20089;-70